Time;durP1;ratioP1;P1;durP2;ratioP2;P2;SDS_P1;SDS_P2;PMS_P1;PMS_P2;Temp;Humidity;BMP_temperature;BMP_pressure;BME280_temperature;BME280_humidity;BME280_pressure;Samples;Min_cycle;Max_cycle;Signal;HPM_P1;HPM_P2
2024/03/13 00:01:16;;;;;;;;;;;;;;;-1.04;78.67;101997.97;5053442;28;19975;-68
2024/03/13 00:03:42;;;;;;;;;;;;;;;-1.05;79.05;101992.81;5052192;28;20066;-67
2024/03/13 00:06:09;;;;;;;;;;;;;;;-1.07;79.07;101998.09;5053720;28;19921;-68
2024/03/13 00:08:34;;;;;;;;;;;;;;;-1.08;79.47;102006.84;5053374;28;19921;-68
2024/03/13 00:11:00;;;;;;;;;;;;;;;-1.08;79.07;102003.38;5052397;28;20400;-68
2024/03/13 00:13:27;;;;;;;;;;;;;;;-1.11;79.47;102000.88;5052239;28;19921;-69
2024/03/13 00:15:53;;;;;;;;;;;;;;;-1.12;79.71;102001.78;5053228;28;19975;-67
2024/03/13 00:18:20;;;;;;;;;;;;;;;-1.15;79.48;102000.16;5053031;28;19921;-67
2024/03/13 00:20:46;;;;;;;;;;;;;;;-1.17;79.71;101991.47;5053075;28;20280;-67
2024/03/13 00:23:11;;;;;;;;;;;;;;;-1.19;79.61;101993.31;5085914;28;19921;-68
2024/03/13 00:25:37;;;;;;;;;;;;;;;-1.20;79.64;101996.84;5053259;28;19928;-67
2024/03/13 00:28:07;;;;;;;;;;;;;;;-1.21;79.73;101989.91;5053383;28;19924;-68
2024/03/13 00:30:33;;;;;;;;;;;;;;;-1.23;79.11;101986.50;5053268;28;19924;-67
2024/03/13 00:32:59;;;;;;;;;;;;;;;-1.25;79.00;101986.56;5053208;28;20314;-66
2024/03/13 00:35:25;;;;;;;;;;;;;;;-1.28;79.67;101978.81;5052993;28;19927;-67
2024/03/13 00:37:50;;;;;;;;;;;;;;;-1.29;79.62;101977.13;5053162;28;20023;-69
2024/03/13 00:40:16;;;;;;;;;;;;;;;-1.30;79.86;101977.19;5053250;28;19964;-69
2024/03/13 00:42:43;;;;;;;;;;;;;;;-1.32;79.26;101976.38;5052940;28;20440;-67
2024/03/13 00:45:11;;;;;;;;;;;;;;;-1.34;79.56;101975.59;5051688;28;19925;-69
2024/03/13 00:47:37;;;;;;;;;;;;;;;-1.35;80.26;101974.75;5034801;28;19921;-68
2024/03/13 00:50:03;;;;;;;;;;;;;;;-1.37;80.48;101975.72;5052763;28;19927;-68
2024/03/13 00:52:29;;;;;;;;;;;;;;;-1.38;80.59;101974.00;5051676;28;19924;-69
2024/03/13 00:54:54;;;;;;;;;;;;;;;-1.40;80.24;101966.22;5054876;28;20011;-68
2024/03/13 00:57:20;;;;;;;;;;;;;;;-1.42;80.43;101961.97;5059710;28;19928;-67
2024/03/13 00:59:46;;;;;;;;;;;;;;;-1.44;80.65;101956.81;5054252;28;19975;-67
2024/03/13 01:02:11;;;;;;;;;;;;;;;-1.46;80.62;101957.75;5053054;28;19921;-68
2024/03/13 01:04:37;;;;;;;;;;;;;;;-1.47;80.83;101945.59;5052580;28;20012;-69
2024/03/13 01:07:06;;;;;;;;;;;;;;;-1.49;81.33;101944.78;5052232;28;20047;-66
2024/03/13 01:09:33;;;;;;;;;;;;;;;-1.51;80.92;101942.25;5053000;28;19928;-68
2024/03/13 01:11:58;;;;;;;;;;;;;;;-1.51;80.92;101941.38;5052232;28;19973;-68
2024/03/13 01:14:24;;;;;;;;;;;;;;;-1.52;80.64;101944.91;5053812;28;19924;-67
2024/03/13 01:16:52;;;;;;;;;;;;;;;-1.52;81.05;101944.91;5052879;28;19964;-68
2024/03/13 01:19:19;;;;;;;;;;;;;;;-1.54;80.95;101938.88;5051837;28;19921;-67
2024/03/13 01:21:45;;;;;;;;;;;;;;;-1.55;80.63;101935.44;5052570;28;19928;-67
2024/03/13 01:24:11;;;;;;;;;;;;;;;-1.57;80.87;101938.09;5051003;28;19921;-67
2024/03/13 01:26:38;;;;;;;;;;;;;;;-1.59;81.19;101939.91;5051324;28;19927;-67
2024/03/13 01:29:03;;;;;;;;;;;;;;;-1.61;80.88;101936.50;5052495;28;19931;-68
2024/03/13 01:31:29;;;;;;;;;;;;;;;-1.61;80.56;101933.91;5052152;28;19925;-69
2024/03/13 01:33:55;;;;;;;;;;;;;;;-1.63;81.04;101938.31;5050848;28;19928;-67
2024/03/13 01:37:55;;;;;;;;;;;;;;;-1.65;81.16;101934.94;5052101;28;20028;-69
2024/03/13 01:39:06;;;;;;;;;;;;;;;-1.65;81.52;101934.06;5052245;28;19921;-67
2024/03/13 01:55:35;;;;;;;;;;;;;;;-1.72;81.43;101920.38;5051865;28;19974;-67
2024/03/13 02:03:14;;;;;;;;;;;;;;;-1.74;81.27;101922.19;5052319;28;19974;-68
2024/03/13 02:05:42;;;;;;;;;;;;;;;-1.76;80.63;101913.53;5051930;28;20416;-68
2024/03/13 02:08:08;;;;;;;;;;;;;;;-1.76;81.24;101910.94;5051491;28;19967;-67
2024/03/13 02:10:34;;;;;;;;;;;;;;;-1.77;81.19;101909.22;5055422;28;20480;-68
2024/03/13 02:13:10;;;;;;;;;;;;;;;-1.78;81.94;101912.75;5055756;28;19932;-67
2024/03/13 02:15:35;;;;;;;;;;;;;;;-1.79;81.68;101920.66;5056382;28;19921;-71
2024/03/13 02:18:01;;;;;;;;;;;;;;;-1.81;81.86;101920.69;5055985;28;19921;-68
2024/03/13 02:20:27;;;;;;;;;;;;;;;-1.82;81.60;101911.16;5056873;28;20407;-68
2024/03/13 02:25:23;;;;;;;;;;;;;;;-1.87;81.69;101893.06;5071447;28;19928;-68
2024/03/13 02:27:51;;;;;;;;;;;;;;;-1.89;82.54;101896.63;5074011;28;19978;-67
2024/03/13 02:30:17;;;;;;;;;;;;;;;-1.91;82.23;101894.09;5075440;28;20382;-68
2024/03/13 02:32:42;;;;;;;;;;;;;;;-1.93;81.88;101895.03;5076942;28;20414;-68
2024/03/13 02:35:08;;;;;;;;;;;;;;;-1.94;82.25;101898.56;5059711;28;19920;-67
2024/03/13 02:37:33;;;;;;;;;;;;;;;-1.94;82.56;101886.34;5076913;28;19920;-67
2024/03/13 02:39:58;;;;;;;;;;;;;;;-1.95;81.74;101886.41;5076521;28;19921;-69
2024/03/13 02:42:24;;;;;;;;;;;;;;;-1.96;82.49;101887.31;5074760;28;20309;-68
2024/03/13 02:44:49;;;;;;;;;;;;;;;-1.98;82.57;101883.91;5076018;28;20287;-69
2024/03/13 02:47:14;;;;;;;;;;;;;;;-2.00;81.56;101880.50;5069411;28;19925;-67
2024/03/13 02:49:39;;;;;;;;;;;;;;;-1.97;82.48;101890.84;5059127;28;19933;-67
2024/03/13 02:52:06;;;;;;;;;;;;;;;-1.99;82.49;101884.81;5056408;28;19955;-67
2024/03/13 02:54:31;;;;;;;;;;;;;;;-2.00;82.33;101886.59;5055399;28;19921;-68
2024/03/13 02:56:57;;;;;;;;;;;;;;;-2.00;82.55;101881.38;5054914;28;19928;-67
2024/03/13 02:59:22;;;;;;;;;;;;;;;-2.00;82.43;101888.34;5055174;28;19966;-67
2024/03/13 03:01:48;;;;;;;;;;;;;;;-2.01;83.09;101889.25;5056461;28;19966;-67
2024/03/13 03:04:14;;;;;;;;;;;;;;;-2.03;82.84;101880.59;5056155;28;20019;-67
2024/03/13 03:06:40;;;;;;;;;;;;;;;-2.04;83.30;101890.19;5054146;28;20007;-68
2024/03/13 03:09:05;;;;;;;;;;;;;;;-2.05;82.92;101888.47;5054917;28;19921;-69
2024/03/13 03:11:31;;;;;;;;;;;;;;;-2.08;83.18;101883.38;5054657;28;19921;-68
2024/03/13 03:13:56;;;;;;;;;;;;;;;-2.09;84.04;101886.03;5053558;28;20302;-68
2024/03/13 03:16:22;;;;;;;;;;;;;;;-2.09;84.08;101880.81;5066713;28;19967;-68
2024/03/13 03:18:47;;;;;;;;;;;;;;;-2.13;84.06;101880.09;5066224;28;19928;-67
2024/03/13 03:21:14;;;;;;;;;;;;;;;-2.14;84.11;101878.38;5064989;28;19921;-69
2024/03/13 03:23:40;;;;;;;;;;;;;;;-2.15;84.25;101878.44;5065235;28;20287;-70
2024/03/13 03:26:06;;;;;;;;;;;;;;;-2.17;84.17;101877.63;5054812;28;19925;-68
2024/03/13 03:28:31;;;;;;;;;;;;;;;-2.19;85.00;101881.16;5054661;28;19928;-67
2024/03/13 03:30:58;;;;;;;;;;;;;;;-2.20;85.10;101879.47;5054500;28;20371;-68
2024/03/13 03:33:23;;;;;;;;;;;;;;;-2.21;84.53;101877.75;5054427;28;19952;-69
2024/03/13 03:35:48;;;;;;;;;;;;;;;-2.21;84.39;101872.53;5054551;28;20002;-68
2024/03/13 03:38:14;;;;;;;;;;;;;;;-2.21;84.72;101869.94;5053026;28;20368;-69
2024/03/13 03:40:39;;;;;;;;;;;;;;;-2.23;84.29;101873.50;5054314;28;19927;-68
2024/03/13 03:43:04;;;;;;;;;;;;;;;-2.24;85.07;101872.66;5058155;28;19925;-69
2024/03/13 03:45:30;;;;;;;;;;;;;;;-2.25;85.01;101870.94;5060593;28;20019;-68
2024/03/13 03:47:55;;;;;;;;;;;;;;;-2.25;84.60;101868.34;5066429;28;19949;-69
2024/03/13 03:50:20;;;;;;;;;;;;;;;-2.25;84.64;101872.69;5064224;28;19964;-70
2024/03/13 03:52:47;;;;;;;;;;;;;;;-2.25;84.46;101870.94;5055120;28;19952;-69
2024/03/13 03:55:12;;;;;;;;;;;;;;;-2.26;84.63;101863.16;5054017;28;19920;-70
2024/03/13 03:57:40;;;;;;;;;;;;;;;-2.28;85.21;101875.41;5054084;28;20295;-68
2024/03/13 04:00:06;;;;;;;;;;;;;;;-2.28;84.67;101870.19;5053029;28;19924;-68
2024/03/13 04:02:33;;;;;;;;;;;;;;;-2.30;84.78;101866.78;5059669;28;19928;-65
2024/03/13 04:04:58;;;;;;;;;;;;;;;-2.33;85.37;101872.94;5062618;28;19951;-68
2024/03/13 04:07:23;;;;;;;;;;;;;;;-2.33;84.62;101867.72;5058401;28;19924;-68
2024/03/13 04:09:49;;;;;;;;;;;;;;;-2.33;85.06;101867.72;5053996;28;19921;-68
2024/03/13 04:12:15;;;;;;;;;;;;;;;-2.33;85.24;101867.72;5053586;28;19925;-68
2024/03/13 04:14:40;;;;;;;;;;;;;;;-2.33;85.63;101872.94;5053758;28;19974;-68
2024/03/13 04:17:09;;;;;;;;;;;;;;;-2.33;85.62;101877.31;5053819;28;20325;-68
2024/03/13 04:19:35;;;;;;;;;;;;;;;-2.34;85.35;101881.69;5053746;28;19932;-68
2024/03/13 04:22:00;;;;;;;;;;;;;;;-2.35;85.57;101882.56;5053704;28;19921;-67
2024/03/13 04:24:26;;;;;;;;;;;;;;;-2.35;85.87;101885.19;5052036;28;19925;-68
2024/03/13 04:26:51;;;;;;;;;;;;;;;-2.34;85.82;101886.91;5053251;28;19929;-68
2024/03/13 04:29:16;;;;;;;;;;;;;;;-2.33;85.70;101888.59;5053620;28;19927;-69
2024/03/13 04:31:42;;;;;;;;;;;;;;;-2.36;85.81;101891.31;5051801;28;19921;-70
2024/03/13 04:34:07;;;;;;;;;;;;;;;-2.34;85.80;101893.88;5052623;28;19927;-68
2024/03/13 04:36:36;;;;;;;;;;;;;;;-2.32;85.69;101890.31;5051905;28;19921;-70
2024/03/13 04:39:01;;;;;;;;;;;;;;;-2.29;85.67;101889.38;5068348;28;19921;-68
2024/03/13 04:41:27;;;;;;;;;;;;;;;-2.26;85.64;101878.81;5052728;28;19942;-67
2024/03/13 04:43:52;;;;;;;;;;;;;;;-2.21;85.47;101882.97;5051753;28;19920;-65
2024/03/13 04:46:18;;;;;;;;;;;;;;;-2.17;85.38;101877.63;5052930;28;20454;-66
2024/03/13 04:48:49;;;;;;;;;;;;;;;-2.14;85.43;101877.53;5052604;28;19921;-67
2024/03/13 04:51:14;;;;;;;;;;;;;;;-2.09;85.20;101880.81;5053141;28;19924;-72
2024/03/13 04:53:40;;;;;;;;;;;;;;;-2.03;84.57;101881.44;5052804;28;20379;-68
2024/03/13 04:56:06;;;;;;;;;;;;;;;-2.00;83.11;101890.97;5052319;28;19920;-67
2024/03/13 04:58:33;;;;;;;;;;;;;;;-1.98;82.47;101894.38;5052403;28;20287;-66
2024/03/13 05:00:58;;;;;;;;;;;;;;;-1.94;82.28;101894.19;5052612;28;19976;-67
2024/03/13 05:03:24;;;;;;;;;;;;;;;-1.92;80.26;101894.13;5051171;28;19977;-68
2024/03/13 05:05:49;;;;;;;;;;;;;;;-1.90;79.66;101897.53;5052544;28;19921;-68
2024/03/13 05:08:16;;;;;;;;;;;;;;;-1.84;79.95;101896.47;5052410;28;19929;-66
2024/03/13 05:10:41;;;;;;;;;;;;;;;-1.81;80.17;101897.19;5052366;28;19944;-68
2024/03/13 05:13:06;;;;;;;;;;;;;;;-1.73;80.23;101899.56;5071257;28;20324;-69
2024/03/13 05:15:32;;;;;;;;;;;;;;;-1.64;79.75;101888.75;5070810;28;19924;-66
2024/03/13 05:17:57;;;;;;;;;;;;;;;-1.58;79.84;101891.97;5072081;28;20387;-67
2024/03/13 05:20:23;;;;;;;;;;;;;;;-1.49;79.95;101900.38;5070919;28;19921;-67
2024/03/13 05:22:48;;;;;;;;;;;;;;;-1.41;78.93;101885.28;5073255;28;19921;-70
2024/03/13 05:25:17;;;;;;;;;;;;;;;-1.34;78.46;101881.53;5070515;28;19925;-66
2024/03/13 05:27:46;;;;;;;;;;;;;;;-1.28;78.52;101884.75;5072462;28;19924;-68
2024/03/13 05:30:12;;;;;;;;;;;;;;;-1.21;77.82;101877.50;5071993;28;19921;-67
2024/03/13 05:32:37;;;;;;;;;;;;;;;-1.13;78.05;101874.63;5072150;28;19926;-66
2024/03/13 05:35:06;;;;;;;;;;;;;;;-1.10;77.30;101877.94;5071702;28;20349;-69
2024/03/13 05:37:32;;;;;;;;;;;;;;;-1.05;76.66;101878.63;5073328;28;19959;-69
2024/03/13 05:40:12;;;;;;;;;;;;;;;-0.99;76.58;101877.50;5069526;28;19956;-69
2024/03/13 05:42:57;;;;;;;;;;;;;;;-0.95;76.25;101869.47;5071338;28;20520;-70
2024/03/13 05:45:31;;;;;;;;;;;;;;;-0.88;76.09;101874.44;5072512;28;19931;-70
2024/03/13 05:47:56;;;;;;;;;;;;;;;-0.83;76.06;101873.38;5073254;28;19920;-67
2024/03/13 05:50:22;;;;;;;;;;;;;;;-0.80;72.96;101872.41;5075148;28;19943;-72
2024/03/13 05:52:47;;;;;;;;;;;;;;;-0.80;73.54;101868.03;5074751;28;19928;-65
2024/03/13 05:55:14;;;;;;;;;;;;;;;-0.76;74.61;101869.59;5071329;28;19927;-69
2024/03/13 05:57:40;;;;;;;;;;;;;;;-0.71;73.90;101866.78;5066262;28;19925;-69
2024/03/13 06:00:17;;;;;;;;;;;;;;;-0.68;72.39;101874.50;5065512;28;20444;-69
2024/03/13 06:02:42;;;;;;;;;;;;;;;-0.65;72.64;101866.53;5059742;28;19921;-67
2024/03/13 06:05:16;;;;;;;;;;;;;;;-0.62;72.13;101869.84;5064881;28;20019;-68
2024/03/13 06:07:42;;;;;;;;;;;;;;;-0.58;70.55;101873.19;5067766;28;19928;-70
2024/03/13 06:10:10;;;;;;;;;;;;;;;-0.53;71.92;101870.41;5070025;28;20003;-70
2024/03/13 06:12:36;;;;;;;;;;;;;;;-0.46;71.97;101862.22;5079799;28;19994;-69
2024/03/13 06:15:07;;;;;;;;;;;;;;;-0.36;72.47;101865.28;5065959;28;20371;-69
2024/03/13 06:17:35;;;;;;;;;;;;;;;-0.27;71.37;101874.53;5069791;28;20297;-68
2024/03/13 06:20:03;;;;;;;;;;;;;;;-0.22;71.02;101872.56;5073236;28;19920;-69
2024/03/13 06:22:29;;;;;;;;;;;;;;;-0.17;71.05;101868.81;5075494;28;19962;-68
2024/03/13 06:24:56;;;;;;;;;;;;;;;-0.08;70.74;101870.19;5077362;28;20023;-67
2024/03/13 06:27:27;;;;;;;;;;;;;;;-0.02;70.33;101869.91;5075156;28;19947;-66
2024/03/13 06:29:57;;;;;;;;;;;;;;;0.05;69.30;101873.97;5075172;28;19987;-67
2024/03/13 06:32:23;;;;;;;;;;;;;;;0.07;68.30;101866.91;5075479;28;19931;-67
2024/03/13 06:34:48;;;;;;;;;;;;;;;0.09;67.62;101865.06;5075530;28;19928;-66
2024/03/13 06:37:14;;;;;;;;;;;;;;;0.15;68.55;101864.78;5078242;28;20346;-64
2024/03/13 06:39:41;;;;;;;;;;;;;;;0.20;67.62;101862.78;5077119;28;20302;-67
2024/03/13 06:42:06;;;;;;;;;;;;;;;0.25;68.62;101865.19;5076885;28;20059;-68
2024/03/13 06:44:32;;;;;;;;;;;;;;;0.30;67.08;101853.63;5075055;28;20015;-68
2024/03/13 06:46:57;;;;;;;;;;;;;;;0.33;67.75;101857.00;5077036;28;19920;-67
2024/03/13 06:49:22;;;;;;;;;;;;;;;0.35;66.19;101861.25;5079241;28;19927;-67
2024/03/13 06:51:48;;;;;;;;;;;;;;;0.43;66.09;101868.78;5078061;28;19921;-70
2024/03/13 06:54:13;;;;;;;;;;;;;;;0.52;67.46;101863.94;5073824;28;20015;-68
2024/03/13 06:56:38;;;;;;;;;;;;;;;0.60;67.08;101858.38;5072913;28;20007;-68
2024/03/13 06:59:03;;;;;;;;;;;;;;;0.66;66.33;101865.94;5074700;28;20739;-69
2024/03/13 07:01:29;;;;;;;;;;;;;;;0.72;64.97;101860.41;5073768;28;19920;-68
2024/03/13 07:03:55;;;;;;;;;;;;;;;0.77;64.21;101863.63;5073450;28;19978;-70
2024/03/13 07:06:20;;;;;;;;;;;;;;;0.85;64.99;101871.97;5073249;28;19926;-66
2024/03/13 07:08:45;;;;;;;;;;;;;;;0.92;65.33;101868.16;5074493;28;19921;-67
2024/03/13 07:11:14;;;;;;;;;;;;;;;0.99;64.45;101858.22;5074101;28;19931;-68
2024/03/13 07:13:39;;;;;;;;;;;;;;;1.04;63.45;101863.25;5078131;28;19927;-70
2024/03/13 07:16:05;;;;;;;;;;;;;;;1.13;64.28;101865.41;5073028;28;19924;-67
2024/03/13 07:18:33;;;;;;;;;;;;;;;1.18;63.62;101859.03;5074204;28;19920;-69
2024/03/13 07:20:59;;;;;;;;;;;;;;;1.23;62.43;101866.69;5074191;28;19920;-68
2024/03/13 07:23:27;;;;;;;;;;;;;;;1.21;62.58;101860.66;5074064;28;20362;-68
2024/03/13 07:25:55;;;;;;;;;;;;;;;1.23;63.04;101870.16;5072623;28;19931;-70
2024/03/13 07:28:20;;;;;;;;;;;;;;;1.28;63.34;101862.03;5075062;28;19924;-70
2024/03/13 07:30:47;;;;;;;;;;;;;;;1.37;62.80;101863.34;5073216;28;19920;-70
2024/03/13 07:33:13;;;;;;;;;;;;;;;1.42;62.78;101862.19;5073570;28;19920;-70
2024/03/13 07:35:42;;;;;;;;;;;;;;;1.49;62.34;101858.34;5073709;28;19966;-68
2024/03/13 07:38:10;;;;;;;;;;;;;;;1.66;62.76;101867.13;5072328;28;20008;-71
2024/03/13 07:40:39;;;;;;;;;;;;;;;1.76;60.97;101863.13;5073469;28;19970;-71
2024/03/13 07:43:08;;;;;;;;;;;;;;;1.85;60.65;101852.13;5074326;28;19966;-70
2024/03/13 07:45:34;;;;;;;;;;;;;;;1.96;61.93;101862.91;5076317;28;19920;-67
2024/03/13 07:47:59;;;;;;;;;;;;;;;2.06;62.52;101847.53;5072661;28;19990;-67
2024/03/13 07:50:25;;;;;;;;;;;;;;;2.15;61.90;101853.13;5074850;28;19925;-68
2024/03/13 07:52:50;;;;;;;;;;;;;;;2.25;61.62;101850.00;5073934;28;20429;-69
2024/03/13 07:55:17;;;;;;;;;;;;;;;2.31;61.03;101849.66;5073350;28;19966;-69
2024/03/13 07:57:43;;;;;;;;;;;;;;;2.36;59.46;101852.94;5072288;28;19963;-68
2024/03/13 08:00:11;;;;;;;;;;;;;;;2.41;60.45;101850.88;5074129;28;19920;-65
2024/03/13 08:02:36;;;;;;;;;;;;;;;2.43;59.28;101849.03;5072161;28;19969;-66
2024/03/13 08:05:02;;;;;;;;;;;;;;;2.48;59.13;101849.63;5073388;28;19975;-67
2024/03/13 08:07:31;;;;;;;;;;;;;;;2.55;60.03;101848.34;5072421;28;20458;-66
2024/03/13 08:09:57;;;;;;;;;;;;;;;2.63;58.92;101848.78;5072750;28;19920;-67
2024/03/13 08:12:22;;;;;;;;;;;;;;;2.71;58.35;101843.94;5073274;28;19932;-66
2024/03/13 08:14:47;;;;;;;;;;;;;;;2.75;59.44;101837.56;5072439;28;20353;-66
2024/03/13 08:17:13;;;;;;;;;;;;;;;2.85;59.28;101844.94;5076018;28;20469;-70
2024/03/13 08:19:38;;;;;;;;;;;;;;;2.93;58.80;101840.09;5073869;28;20349;-68
2024/03/13 08:22:03;;;;;;;;;;;;;;;2.89;56.83;101838.56;5052573;28;19928;-67
2024/03/13 08:24:29;;;;;;;;;;;;;;;2.93;58.67;101837.47;5054164;28;19952;-64
2024/03/13 08:26:54;;;;;;;;;;;;;;;3.00;58.96;101836.19;5051433;28;19929;-67
2024/03/13 08:29:20;;;;;;;;;;;;;;;3.01;58.50;101832.63;5069923;28;19967;-68
2024/03/13 08:31:47;;;;;;;;;;;;;;;3.07;58.91;101829.63;5074939;28;19932;-67
2024/03/13 08:34:19;;;;;;;;;;;;;;;3.19;58.81;101825.44;5071888;28;19928;-68
2024/03/13 08:36:44;;;;;;;;;;;;;;;3.32;58.00;101814.09;5073229;28;19974;-67
2024/03/13 08:39:12;;;;;;;;;;;;;;;3.43;57.20;101811.66;5071995;28;20415;-68
2024/03/13 08:41:37;;;;;;;;;;;;;;;3.55;56.62;101811.91;5074283;28;19943;-68
2024/03/13 08:44:06;;;;;;;;;;;;;;;3.62;56.70;101819.34;5051240;28;20012;-69
2024/03/13 08:46:32;;;;;;;;;;;;;;;3.67;55.63;101817.25;5056295;28;19928;-67
2024/03/13 08:49:01;;;;;;;;;;;;;;;3.73;55.83;101816.03;5058535;28;19921;-68
2024/03/13 08:51:26;;;;;;;;;;;;;;;3.75;55.42;101814.16;5060616;28;19920;-67
2024/03/13 08:53:52;;;;;;;;;;;;;;;3.82;55.45;101826.03;5074845;28;19992;-68
2024/03/13 08:56:18;;;;;;;;;;;;;;;3.92;56.16;101821.91;5053541;28;19927;-70
2024/03/13 08:58:44;;;;;;;;;;;;;;;3.93;55.33;101818.31;5052912;28;19921;-70
2024/03/13 09:01:10;;;;;;;;;;;;;;;4.06;55.05;101818.44;5053293;28;19921;-68
2024/03/13 09:03:36;;;;;;;;;;;;;;;4.18;55.04;101817.66;5057707;28;19931;-70
2024/03/13 09:06:04;;;;;;;;;;;;;;;4.27;54.58;101816.22;5052802;28;19982;-68
2024/03/13 09:08:29;;;;;;;;;;;;;;;4.19;54.18;101814.06;5068036;28;20299;-69
2024/03/13 09:10:56;;;;;;;;;;;;;;;4.35;55.24;101813.97;5052781;28;19971;-71
2024/03/13 09:13:22;;;;;;;;;;;;;;;4.54;55.10;101819.75;5054061;28;20454;-66
2024/03/13 09:15:47;;;;;;;;;;;;;;;4.60;53.46;101808.81;5058031;28;19956;-66
2024/03/13 09:18:12;;;;;;;;;;;;;;;4.75;54.73;101814.06;5056683;28;19920;-66
2024/03/13 09:20:37;;;;;;;;;;;;;;;4.91;53.12;101814.72;5057245;28;19928;-66
2024/03/13 09:23:03;;;;;;;;;;;;;;;5.05;53.50;101813.84;5053037;28;19952;-67
2024/03/13 09:25:29;;;;;;;;;;;;;;;5.08;52.55;101809.19;5052275;28;19964;-67
2024/03/13 09:27:55;;;;;;;;;;;;;;;5.16;53.21;101804.25;5052347;28;20393;-66
2024/03/13 09:30:23;;;;;;;;;;;;;;;5.27;52.39;101803.53;5050237;28;20266;-68
2024/03/13 09:32:48;;;;;;;;;;;;;;;5.45;51.49;101804.09;5052466;28;19929;-68
2024/03/13 09:35:17;;;;;;;;;;;;;;;5.51;52.71;101801.06;5068895;28;20046;-67
2024/03/13 09:37:43;;;;;;;;;;;;;;;5.50;52.97;101802.00;5052688;28;19920;-67
2024/03/13 09:40:16;;;;;;;;;;;;;;;5.47;52.08;101799.53;5052218;28;19927;-66
2024/03/13 09:42:43;;;;;;;;;;;;;;;5.43;52.61;101798.06;5051991;28;20027;-66
2024/03/13 09:45:14;;;;;;;;;;;;;;;5.52;52.99;101805.38;5052004;28;19921;-65
2024/03/13 09:47:40;;;;;;;;;;;;;;;5.54;52.56;101796.41;5051906;28;19921;-66
2024/03/13 09:50:10;;;;;;;;;;;;;;;5.57;53.88;101795.34;5067390;28;19921;-67
2024/03/13 09:52:35;;;;;;;;;;;;;;;5.59;52.73;101796.91;5052693;28;19925;-66
2024/03/13 09:55:01;;;;;;;;;;;;;;;5.46;53.25;101784.63;5052286;28;19921;-67
2024/03/13 09:57:29;;;;;;;;;;;;;;;5.40;52.91;101787.69;5052677;28;20383;-66
2024/03/13 09:59:56;;;;;;;;;;;;;;;5.41;53.14;101786.75;5052008;28;19921;-66
2024/03/13 10:02:27;;;;;;;;;;;;;;;5.51;53.35;101787.84;5051853;28;20019;-66
2024/03/13 10:04:53;;;;;;;;;;;;;;;5.66;54.16;101788.56;5052256;28;19920;-67
2024/03/13 10:07:21;;;;;;;;;;;;;;;5.76;53.55;101793.09;5052377;28;20016;-68
2024/03/13 10:09:47;;;;;;;;;;;;;;;5.86;54.13;101790.69;5050370;28;19920;-67
2024/03/13 10:12:12;;;;;;;;;;;;;;;5.95;54.14;101783.94;5051637;28;20019;-67
2024/03/13 10:14:39;;;;;;;;;;;;;;;6.01;54.41;101788.78;5051548;28;20027;-66
2024/03/13 10:17:05;;;;;;;;;;;;;;;6.01;54.61;101783.50;5051623;28;19974;-68
2024/03/13 10:19:35;;;;;;;;;;;;;;;6.04;54.50;101789.41;5051827;28;19924;-68
2024/03/13 10:22:01;;;;;;;;;;;;;;;5.97;54.85;101785.50;5051763;28;20016;-69
2024/03/13 10:24:29;;;;;;;;;;;;;;;5.96;55.26;101781.19;5053063;28;19931;-66
2024/03/13 10:26:56;;;;;;;;;;;;;;;6.07;55.97;101780.41;5051173;28;19932;-67
2024/03/13 10:29:22;;;;;;;;;;;;;;;6.15;55.26;101780.72;5032631;28;19921;-67
2024/03/13 10:31:50;;;;;;;;;;;;;;;6.20;55.89;101778.59;5053469;28;19967;-67
2024/03/13 10:34:15;;;;;;;;;;;;;;;6.29;55.85;101774.44;5054702;28;19929;-66
2024/03/13 10:36:41;;;;;;;;;;;;;;;6.39;55.77;101776.34;5069907;28;19943;-69
2024/03/13 10:39:08;;;;;;;;;;;;;;;6.37;55.12;101775.59;5057280;28;19952;-67
2024/03/13 10:41:33;;;;;;;;;;;;;;;6.39;55.81;101778.13;5069702;28;19921;-68
2024/03/13 10:44:00;;;;;;;;;;;;;;;6.35;56.35;101779.28;5054200;28;19928;-68
2024/03/13 10:46:26;;;;;;;;;;;;;;;6.37;56.04;101772.94;5054340;28;20034;-64
2024/03/13 10:48:52;;;;;;;;;;;;;;;6.46;56.89;101766.97;5054146;28;19921;-67
2024/03/13 10:51:18;;;;;;;;;;;;;;;6.59;56.54;101769.56;5054498;28;19927;-67
2024/03/13 10:53:43;;;;;;;;;;;;;;;6.65;56.41;101765.63;5054988;28;20019;-69
2024/03/13 10:56:13;;;;;;;;;;;;;;;6.67;56.37;101767.22;5055950;28;20306;-66
2024/03/13 10:58:38;;;;;;;;;;;;;;;6.80;55.92;101767.16;5053961;28;19921;-67
2024/03/13 11:01:04;;;;;;;;;;;;;;;6.84;55.88;101758.03;5054267;28;19927;-67
2024/03/13 11:03:29;;;;;;;;;;;;;;;6.91;56.22;101751.28;5054243;28;19921;-67
2024/03/13 11:05:55;;;;;;;;;;;;;;;6.97;56.47;101753.50;5052651;28;20047;-66
2024/03/13 11:08:21;;;;;;;;;;;;;;;7.03;56.70;101755.69;5052755;28;19942;-68
2024/03/13 11:10:48;;;;;;;;;;;;;;;7.02;57.36;101753.16;5056807;28;19921;-68
2024/03/13 11:13:14;;;;;;;;;;;;;;;7.07;57.65;101754.50;5058614;28;19943;-68
2024/03/13 11:15:43;;;;;;;;;;;;;;;7.20;57.17;101748.25;5066326;28;19924;-67
2024/03/13 11:18:10;;;;;;;;;;;;;;;7.39;57.73;101756.50;5065931;28;20316;-68
2024/03/13 11:20:39;;;;;;;;;;;;;;;7.59;56.90;101750.50;5060884;28;19935;-68
2024/03/13 11:23:10;;;;;;;;;;;;;;;7.80;56.88;101749.78;5067051;28;19920;-66
2024/03/13 11:25:36;;;;;;;;;;;;;;;7.91;56.62;101744.50;5055520;28;19928;-68
2024/03/13 11:28:02;;;;;;;;;;;;;;;7.87;56.64;101737.75;5072034;28;20289;-68
2024/03/13 11:30:28;;;;;;;;;;;;;;;7.93;56.00;101748.72;5064594;28;20340;-67
2024/03/13 11:32:57;;;;;;;;;;;;;;;7.97;56.50;101744.84;5061487;28;19924;-67
2024/03/13 11:35:22;;;;;;;;;;;;;;;8.02;56.55;101747.13;5064914;28;19928;-65
2024/03/13 11:37:49;;;;;;;;;;;;;;;8.16;55.49;101744.22;5065164;28;19924;-67
2024/03/13 11:40:15;;;;;;;;;;;;;;;8.21;55.11;101739.41;5061043;28;19920;-68
2024/03/13 11:42:44;;;;;;;;;;;;;;;8.22;54.76;101749.03;5068021;28;19921;-68
2024/03/13 11:45:16;;;;;;;;;;;;;;;8.03;54.75;101739.03;5069690;28;20267;-67
2024/03/13 11:47:47;;;;;;;;;;;;;;;7.85;55.26;101735.22;5066169;28;19921;-68
2024/03/13 11:50:13;;;;;;;;;;;;;;;7.77;55.67;101743.75;5060737;28;19925;-68
2024/03/13 11:52:54;;;;;;;;;;;;;;;7.72;54.94;101737.13;5060319;28;19927;-69
2024/03/13 11:55:25;;;;;;;;;;;;;;;7.78;55.77;101732.19;5061703;28;19932;-69
2024/03/13 11:58:00;;;;;;;;;;;;;;;7.82;55.82;101729.31;5065132;28;20054;-68
2024/03/13 12:00:27;;;;;;;;;;;;;;;7.86;55.34;101725.44;5063399;28;20411;-67
2024/03/13 12:02:53;;;;;;;;;;;;;;;7.88;55.31;101734.13;5063616;28;19924;-69
2024/03/13 12:05:34;;;;;;;;;;;;;;;7.93;55.59;101731.94;5067342;28;19920;-67
2024/03/13 12:08:02;;;;;;;;;;;;;;;7.98;55.13;101724.47;5060877;28;19920;-69
2024/03/13 12:10:27;;;;;;;;;;;;;;;7.99;54.52;101720.84;5063485;28;19921;-68
2024/03/13 12:12:53;;;;;;;;;;;;;;;8.00;54.63;101727.84;5062882;28;19966;-69
2024/03/13 12:15:19;;;;;;;;;;;;;;;8.07;54.56;101729.03;5059367;28;19924;-68
2024/03/13 12:17:50;;;;;;;;;;;;;;;8.08;54.82;101725.41;5061802;28;19964;-68
2024/03/13 12:20:21;;;;;;;;;;;;;;;7.98;54.35;101729.78;5063909;28;20655;-68
2024/03/13 12:22:47;;;;;;;;;;;;;;;8.01;54.43;101724.22;5063832;28;19921;-65
2024/03/13 12:25:13;;;;;;;;;;;;;;;8.22;54.79;101721.66;5060929;28;19931;-69
2024/03/13 12:27:49;;;;;;;;;;;;;;;8.27;53.04;101717.66;5067020;28;19947;-68
2024/03/13 12:30:18;;;;;;;;;;;;;;;8.33;54.60;101714.53;5062832;28;20318;-66
2024/03/13 12:32:45;;;;;;;;;;;;;;;8.32;53.73;101707.50;5059139;28;19928;-65
2024/03/13 12:35:11;;;;;;;;;;;;;;;8.25;53.18;101716.09;5064167;28;20015;-66
2024/03/13 12:37:36;;;;;;;;;;;;;;;8.05;53.35;101712.38;5063931;28;20011;-69
2024/03/13 12:40:08;;;;;;;;;;;;;;;7.97;53.89;101713.00;5061631;28;19960;-68
2024/03/13 12:42:36;;;;;;;;;;;;;;;7.90;53.89;101710.97;5065256;28;20015;-67
2024/03/13 12:45:04;;;;;;;;;;;;;;;7.88;54.83;101703.16;5062293;28;20019;-66
2024/03/13 12:47:30;;;;;;;;;;;;;;;7.89;53.95;101698.69;5066682;28;19970;-66
2024/03/13 12:49:56;;;;;;;;;;;;;;;7.89;53.43;101701.34;5062469;28;20514;-68
2024/03/13 12:52:21;;;;;;;;;;;;;;;7.88;53.44;101694.34;5061167;28;19920;-67
2024/03/13 12:54:47;;;;;;;;;;;;;;;7.92;53.61;101693.13;5062144;28;19921;-68
2024/03/13 12:57:14;;;;;;;;;;;;;;;7.89;53.48;101693.38;5061641;28;19966;-66
2024/03/13 12:59:46;;;;;;;;;;;;;;;7.82;53.42;101686.88;5060968;28;20469;-67
2024/03/13 13:02:12;;;;;;;;;;;;;;;7.86;53.72;101685.66;5061811;28;19921;-67